| time (UTC) | temp F | wind direction | speed MPH | gust MPH | rain 1hr in | rain 24hr in | rain mn in | humidity % | barometer mb |
| 20260507130603 | 70 | 152 | 6.0 | 17.0 | 0.00 | 0.13 | 0.01 | 62 | 468.0 |
| 20260507125603 | 70 | 164 | 6.0 | 13.0 | 0.00 | 0.13 | 0.01 | 62 | 553.6 |
| 20260507124603 | 70 | 214 | 7.0 | 15.0 | 0.00 | 0.13 | 0.01 | 64 | 473.4 |
| 20260507123603 | 70 | 190 | 3.0 | 11.0 | 0.00 | 0.13 | 0.01 | 60 | 450.3 |
| 20260507122604 | 70 | 139 | 4.0 | 11.0 | 0.00 | 0.13 | 0.01 | 61 | 468.0 |
| 20260507121603 | 71 | 171 | 3.0 | 10.0 | 0.00 | 0.13 | 0.01 | 51 | 463.4 |
| 20260507120603 | 70 | 182 | 3.0 | 9.0 | 0.00 | 0.14 | 0.01 | 54 | 467.8 |
| 20260507115603 | 71 | 206 | 4.0 | 11.0 | 0.00 | 0.14 | 0.01 | 55 | 454.9 |
| 20260507114603 | 70 | 191 | 2.0 | 9.0 | 0.00 | 0.14 | 0.01 | 55 | 470.5 |
| 20260507113603 | 70 | 182 | 2.0 | 8.0 | 0.00 | 0.14 | 0.01 | 56 | 489.7 |
| 20260507112604 | 70 | 112 | 2.0 | 9.0 | 0.00 | 0.15 | 0.01 | 59 | 463.7 |
| 20260507111603 | 69 | 175 | 3.0 | 10.0 | 0.00 | 0.15 | 0.01 | 61 | 467.9 |
| 20260507111043 | 69 | 111 | 2.0 | 8.0 | 0.00 | 0.20 | 0.01 | 62 | 463.6 |
| 20260507105603 | 69 | 121 | 2.0 | 9.0 | 0.00 | 0.20 | 0.01 | 63 | 472.5 |
| 20260507104603 | 69 | 158 | 2.0 | 7.0 | 0.00 | 0.22 | 0.01 | 65 | 484.6 |
| 20260507103604 | 68 | 164 | 4.0 | 9.0 | 0.00 | 0.28 | 0.01 | 67 | 470.9 |
| 20260507102604 | 68 | 196 | 4.0 | 9.0 | 0.00 | 0.44 | 0.01 | 69 | 522.7 |
| 20260507101603 | 68 | 138 | 4.0 | 11.0 | 0.00 | 0.75 | 0.01 | 69 | 468.1 |
| 20260507100604 | 67 | 160 | 4.0 | 11.0 | 0.00 | 0.84 | 0.01 | 68 | 468.0 |
| 20260507100103 | 67 | 199 | 5.0 | 14.0 | 0.00 | 0.87 | 0.01 | 70 | 466.4 |
| 20260507094603 | 67 | 175 | 6.0 | 13.0 | 0.00 | 0.91 | 0.01 | 69 | 473.2 |
| 20260507093603 | 67 | 158 | 4.0 | 11.0 | 0.00 | 0.93 | 0.01 | 70 | 468.3 |
| 20260507092604 | 68 | 137 | 6.0 | 13.0 | 0.00 | 0.97 | 0.01 | 67 | 468.0 |
| 20260507091603 | 67 | 125 | 5.0 | 12.0 | 0.00 | 0.98 | 0.01 | 69 | 468.0 |
| 20260507090603 | 67 | 209 | 5.0 | 14.0 | 0.00 | 0.98 | 0.01 | 70 | 518.1 |
| 20260507085603 | 67 | 153 | 7.0 | 15.0 | 0.00 | 0.98 | 0.01 | 73 | 476.1 |
| 20260507084602 | 67 | 135 | 5.0 | 10.0 | 0.00 | 0.99 | 0.01 | 72 | 607.9 |
| 20260507083602 | 66 | 164 | 5.0 | 13.0 | 0.00 | 0.99 | 0.01 | 73 | 508.5 |
| 20260507082602 | 65 | 153 | 5.0 | 10.0 | 0.00 | 0.99 | 0.01 | 76 | 469.3 |
| 20260507081602 | 64 | 180 | 5.0 | 10.0 | 0.00 | 1.00 | 0.01 | 76 | 482.0 |
| 20260507080602 | 64 | 178 | 5.0 | 10.0 | 0.00 | 1.01 | 0.01 | 77 | 468.5 |
| 20260507075602 | 65 | 158 | 3.0 | 9.0 | 0.00 | 1.02 | 0.01 | 79 | 467.3 |
| 20260507075051 | 65 | 113 | 4.0 | 11.0 | 0.00 | 1.02 | 0.01 | 79 | 470.9 |
| 20260507073602 | 65 | 138 | 4.0 | 9.0 | 0.00 | 1.04 | 0.01 | 81 | 468.3 |
| 20260507072603 | 64 | 134 | 5.0 | 9.0 | 0.00 | 1.05 | 0.01 | 83 | 467.2 |
| 20260507071602 | 62 | 147 | 2.0 | 7.0 | 0.00 | 1.05 | 0.01 | 88 | 467.9 |
| 20260507070602 | 62 | 161 | 1.0 | 7.0 | 0.00 | 1.05 | 0.01 | 90 | 468.1 |
| 20260507065602 | 62 | 161 | 2.0 | 7.0 | 0.00 | 1.05 | 0.01 | 90 | 475.9 |
| 20260507064603 | 61 | 132 | 3.0 | 5.0 | 0.00 | 1.06 | 0.01 | 92 | 479.7 |
| 20260507063602 | 61 | 151 | 3.0 | 8.0 | 0.00 | 1.09 | 0.01 | 93 | 445.2 |
| 20260507062605 | 60 | 138 | 2.0 | 7.0 | 0.00 | 1.16 | 0.01 | 94 | 473.3 |
| 20260507061602 | 60 | 139 | 0.0 | 6.0 | 0.00 | 1.20 | 0.01 | 94 | 473.4 |
| 20260507060603 | 60 | 135 | 3.0 | 8.0 | 0.00 | 1.26 | 0.01 | 95 | 464.5 |
| 20260507055603 | 60 | 115 | 3.0 | 11.0 | 0.00 | 1.31 | 0.01 | 95 | 473.2 |
| 20260507054604 | 60 | 117 | 2.0 | 7.0 | 0.00 | 1.34 | 0.01 | 96 | 473.3 |
| 20260507053604 | 60 | 105 | 2.0 | 8.0 | 0.00 | 1.34 | 0.01 | 97 | 473.3 |
| 20260507052601 | 60 | 118 | 1.0 | 4.0 | 0.00 | 1.34 | 0.01 | 97 | 466.4 |
| 20260507051602 | 59 | 118 | 1.0 | 4.0 | 0.00 | 1.34 | 0.01 | 97 | 467.9 |
| 20260507050615 | 59 | 127 | 0.0 | 3.0 | 0.00 | 1.34 | 0.01 | 97 | 468.8 |
| 20260507045602 | 59 | 127 | 0.0 | 2.0 | 0.00 | 1.34 | 0.01 | 97 | 484.5 |
| 20260507044605 | 58 | 127 | 0.0 | 0.0 | 0.00 | 1.34 | 0.01 | 97 | 472.7 |
| 20260507044041 | 58 | 127 | 0.0 | 0.0 | 0.00 | 1.34 | 0.01 | 96 | 466.1 |
| 20260507042603 | 58 | 127 | 0.0 | 0.0 | 0.00 | 1.34 | 0.01 | 96 | 470.9 |
| 20260507041603 | 58 | 127 | 0.0 | 0.0 | 0.00 | 1.34 | 0.01 | 96 | 498.6 |
| 20260507040606 | 58 | 127 | 2.0 | 5.0 | 0.00 | 1.34 | 0.01 | 96 | 468.4 |
| 20260507040056 | 58 | 127 | 2.0 | 4.0 | 0.00 | 1.34 | 0.01 | 96 | 467.9 |
| 20260507034604 | 58 | 127 | 0.0 | 3.0 | 0.00 | 1.34 | 0.01 | 96 | 468.7 |
| 20260507033602 | 58 | 127 | 0.0 | 0.0 | 0.00 | 1.34 | 0.01 | 96 | 475.6 |
| 20260507032602 | 58 | 127 | 0.0 | 0.0 | 0.00 | 1.34 | 0.01 | 96 | 468.3 |
| 20260507031606 | 58 | 127 | 0.0 | 3.0 | 0.00 | 1.34 | 0.01 | 96 | 467.9 |
| 20260507030602 | 58 | 127 | 0.0 | 3.0 | 0.00 | 1.34 | 0.01 | 96 | 458.7 |
| 20260507025602 | 59 | 127 | 0.0 | 0.0 | 0.00 | 1.34 | 0.01 | 96 | 459.9 |
| 20260507024605 | 59 | 127 | 0.0 | 0.0 | 0.00 | 1.34 | 0.01 | 96 | 556.6 |
| 20260507023604 | 59 | 127 | 0.0 | 4.0 | 0.00 | 1.34 | 0.01 | 96 | 467.9 |
| 20260507022602 | 60 | 123 | 2.0 | 6.0 | 0.00 | 1.34 | 0.01 | 96 | 468.0 |
| 20260507021603 | 60 | 131 | 2.0 | 5.0 | 0.00 | 1.34 | 0.01 | 96 | 467.9 |
| 20260507020604 | 60 | 138 | 0.0 | 3.0 | 0.00 | 1.34 | 0.01 | 95 | 495.5 |
| 20260507015602 | 60 | 138 | 0.0 | 0.0 | 0.00 | 1.34 | 0.01 | 95 | 468.1 |
| 20260507014604 | 60 | 138 | 0.0 | 0.0 | 0.00 | 1.34 | 0.01 | 95 | 467.9 |
| 20260507013603 | 60 | 138 | 0.0 | 0.0 | 0.00 | 1.34 | 0.01 | 95 | 468.2 |
| 20260507012602 | 60 | 138 | 0.0 | 3.0 | 0.00 | 1.34 | 0.01 | 95 | 468.1 |
| 20260507011603 | 59 | 138 | 0.0 | 0.0 | 0.00 | 1.34 | 0.01 | 95 | 467.9 |
| 20260507010605 | 59 | 138 | 0.0 | 3.0 | 0.00 | 1.34 | 0.01 | 95 | 468.0 |
| 20260507005600 | 59 | 138 | 0.0 | 3.0 | 0.00 | 1.34 | 0.01 | 94 | 468.0 |
| 20260507004600 | 59 | 138 | 2.0 | 3.0 | 0.00 | 1.34 | 0.01 | 94 | 469.8 |
| 20260507003552 | 60 | 138 | 1.0 | 4.0 | 0.00 | 1.34 | 0.01 | 94 | 467.2 |
| 20260507002553 | 60 | 138 | 0.0 | 4.0 | 0.00 | 1.34 | 0.01 | 94 | 468.0 |
| 20260507001550 | 60 | 138 | 0.0 | 3.0 | 0.00 | 1.34 | 0.01 | 94 | 467.9 |
| 20260507001037 | 59 | 138 | 0.0 | 0.0 | 0.00 | 1.34 | 0.01 | 94 | 468.1 |
| 20260506235545 | 59 | 138 | 0.0 | 0.0 | 0.00 | 1.34 | 0.01 | 94 | 473.3 |
| 20260506235024 | 59 | 138 | 0.0 | 0.0 | 0.00 | 1.34 | 0.01 | 94 | 467.5 |
| 20260506233542 | 59 | 138 | 0.0 | 0.0 | 0.01 | 1.34 | 0.01 | 94 | 467.5 |
| 20260506232541 | 59 | 138 | 2.0 | 7.0 | 0.01 | 1.34 | 0.01 | 94 | 468.0 |
| 20260506231534 | 59 | 135 | 1.0 | 4.0 | 0.01 | 1.34 | 0.01 | 94 | 468.0 |
| 20260506231037 | 59 | 136 | 1.0 | 5.0 | 0.01 | 1.34 | 0.01 | 94 | 468.0 |
| 20260506230448 | 59 | 139 | 0.0 | 5.0 | 0.01 | 1.33 | 0.01 | 94 | 478.5 |
| 20260506224531 | 59 | 175 | 1.0 | 3.0 | 0.01 | 1.33 | 0.01 | 93 | 468.0 |
| 20260506224015 | 59 | 175 | 0.0 | 0.0 | 0.00 | 1.33 | 0.00 | 93 | 467.2 |
| 20260506222532 | 59 | 175 | 0.0 | 0.0 | 0.00 | 1.33 | 0.00 | 93 | 467.9 |
| 20260506221531 | 59 | 175 | 0.0 | 0.0 | 0.00 | 1.34 | 0.00 | 93 | 466.9 |
| 20260506220530 | 59 | 175 | 0.0 | 0.0 | 0.00 | 1.35 | 0.00 | 93 | 468.0 |
| 20260506215524 | 58 | 175 | 0.0 | 0.0 | 0.00 | 1.35 | 1.35 | 92 | 468.0 |
| 20260506214523 | 59 | 175 | 0.0 | 0.0 | 0.00 | 1.35 | 1.35 | 92 | 467.9 |
| 20260506213524 | 59 | 175 | 0.0 | 0.0 | 0.00 | 1.35 | 1.35 | 92 | 468.0 |
| 20260506212516 | 59 | 175 | 0.0 | 0.0 | 0.00 | 1.37 | 1.35 | 92 | 468.0 |
| 20260506211517 | 59 | 175 | 0.0 | 0.0 | 0.00 | 1.37 | 1.35 | 92 | 468.0 |
| 20260506210516 | 59 | 175 | 0.0 | 0.0 | 0.00 | 1.37 | 1.35 | 92 | 465.0 |
| 20260506205516 | 59 | 175 | 0.0 | 0.0 | 0.00 | 1.37 | 1.35 | 92 | 468.0 |
| 20260506204516 | 59 | 175 | 0.0 | 0.0 | 0.00 | 1.37 | 1.35 | 92 | 468.0 |
| 20260506203510 | 59 | 175 | 0.0 | 0.0 | 0.00 | 1.37 | 1.35 | 92 | 456.4 |
| 20260506202947 | 59 | 175 | 1.0 | 6.0 | 0.00 | 1.37 | 1.35 | 91 | 473.5 |
| 20260506201510 | 59 | 160 | 2.0 | 6.0 | 0.00 | 1.37 | 1.35 | 92 | 468.0 |
| 20260506200510 | 60 | 158 | 2.0 | 7.0 | 0.00 | 1.37 | 1.35 | 93 | 473.3 |
| 20260506195505 | 60 | 159 | 0.0 | 5.0 | 0.00 | 1.38 | 1.35 | 93 | 619.6 |
| 20260506194507 | 60 | 184 | 2.0 | 6.0 | 0.00 | 1.40 | 1.35 | 94 | 468.0 |
| 20260506193506 | 60 | 180 | 1.0 | 6.0 | 0.01 | 1.41 | 1.35 | 94 | 479.7 |
| 20260506192506 | 60 | 159 | 1.0 | 7.0 | 0.06 | 1.42 | 1.35 | 94 | 467.2 |
| 20260506191502 | 61 | 171 | 1.0 | 6.0 | 0.06 | 1.42 | 1.35 | 94 | 468.0 |
| 20260506190504 | 61 | 186 | 3.0 | 7.0 | 0.06 | 1.43 | 1.35 | 93 | 494.6 |
| 20260506185505 | 61 | 180 | 3.0 | 10.0 | 0.06 | 1.38 | 1.35 | 93 | 468.3 |
| 20260506184504 | 61 | 191 | 3.0 | 9.0 | 0.06 | 1.38 | 1.35 | 93 | 468.1 |
| 20260506183503 | 61 | 215 | 5.0 | 14.0 | 0.06 | 1.38 | 1.33 | 93 | 468.0 |
| 20260506182946 | 61 | 198 | 3.0 | 10.0 | 0.00 | 1.38 | 1.28 | 93 | 468.0 |
| 20260506181501 | 61 | 221 | 4.0 | 9.0 | 0.00 | 1.39 | 1.28 | 93 | 468.1 |
| 20260506180456 | 61 | 209 | 2.0 | 6.0 | 0.00 | 1.39 | 1.28 | 93 | 468.1 |
| 20260506175458 | 61 | 213 | 2.0 | 7.0 | 0.00 | 1.39 | 1.28 | 93 | 464.0 |
| 20260506174452 | 61 | 198 | 1.0 | 5.0 | 0.00 | 1.39 | 1.28 | 93 | 468.0 |
| 20260506173454 | 60 | 207 | 0.0 | 3.0 | 0.00 | 1.39 | 1.28 | 93 | 453.1 |
| 20260506172450 | 60 | 189 | 2.0 | 7.0 | 0.00 | 1.39 | 1.28 | 92 | 468.0 |
| 20260506171447 | 60 | 210 | 2.0 | 8.0 | 0.00 | 1.39 | 1.28 | 92 | 723.2 |
| 20260506170458 | 60 | 201 | 3.0 | 10.0 | 0.00 | 1.39 | 1.28 | 92 | 447.2 |
| 20260506165442 | 61 | 220 | 4.0 | 9.0 | 0.02 | 1.37 | 1.28 | 92 | 473.3 |
| 20260506164447 | 61 | 195 | 5.0 | 13.0 | 0.02 | 1.37 | 1.28 | 91 | 466.6 |
| 20260506163444 | 61 | 202 | 6.0 | 12.0 | 0.02 | 1.37 | 1.28 | 92 | 475.9 |
| 20260506163408 | 61 | 210 | 5.0 | 11.0 | 0.02 | 1.37 | 1.28 | 92 | 468.1 |
| 20260506161442 | 61 | 221 | 3.0 | 11.0 | 0.02 | 1.37 | 1.28 | 92 | 468.1 |
| 20260506160443 | 62 | 211 | 1.0 | 6.0 | 0.02 | 1.37 | 1.28 | 92 | 470.4 |
| 20260506155442 | 62 | 186 | 1.0 | 7.0 | 0.00 | 1.36 | 1.26 | 90 | 468.1 |
| 20260506154444 | 62 | 179 | 1.0 | 7.0 | 0.00 | 1.36 | 1.26 | 90 | 622.3 |
| 20260506153444 | 62 | 167 | 4.0 | 11.0 | 0.00 | 1.37 | 1.26 | 88 | 467.5 |
| 20260506152922 | 62 | 163 | 6.0 | 14.0 | 0.00 | 1.37 | 1.26 | 88 | 445.6 |
| 20260506152402 | 62 | 196 | 6.0 | 14.0 | 0.00 | 1.37 | 1.26 | 88 | 468.0 |
| 20260506150440 | 62 | 190 | 5.0 | 11.0 | 0.00 | 1.37 | 1.26 | 90 | 440.1 |
| 20260506145918 | 62 | 184 | 5.0 | 12.0 | 0.01 | 1.38 | 1.26 | 91 | 468.4 |
| 20260506144437 | 62 | 150 | 6.0 | 12.0 | 0.01 | 1.38 | 1.26 | 91 | 483.9 |
| 20260506143438 | 62 | 188 | 5.0 | 14.0 | 0.01 | 1.39 | 1.26 | 92 | 468.0 |
| 20260506142915 | 62 | 183 | 5.0 | 12.0 | 0.02 | 1.39 | 1.26 | 93 | 468.7 |
| 20260506141431 | 62 | 188 | 2.0 | 10.0 | 0.03 | 1.40 | 1.26 | 93 | 473.3 |
| 20260506140432 | 62 | 195 | 3.0 | 10.0 | 0.03 | 1.41 | 1.26 | 93 | 468.0 |
| 20260506135430 | 61 | 175 | 4.0 | 10.0 | 0.02 | 1.39 | 1.25 | 92 | 484.3 |
| 20260506134431 | 61 | 167 | 5.0 | 16.0 | 0.02 | 1.40 | 1.25 | 92 | 468.0 |
| 20260506133430 | 61 | 165 | 6.0 | 15.0 | 0.02 | 1.43 | 1.25 | 92 | 471.5 |
| 20260506132432 | 61 | 179 | 7.0 | 14.0 | 0.02 | 1.47 | 1.24 | 92 | 478.5 |
| 20260506131432 | 62 | 178 | 5.0 | 13.0 | 0.01 | 1.52 | 1.23 | 91 | 466.0 |